Hlavní strana
METAR-TAF:

METAR-TAF

Letiště :

Daşoguz, Turkmenistán

zeměpisná šířka: 41-45-53N, zeměpisná délka: 059-49-59E, výška: 83 m

Aktuální stav počasí

Zpráva byla vytvořena před 36 minutami, v 14:00 UTC
Západoseverozápadní vítr 16 kt
Teplota 5°C
Vlhkost vzduchu 81%
Tlak 1016 hPa
Viditelnost 10 km a více
Zataženo ve výšce 1500 ft

METAR: UTAT 191400Z 29016KT 9999 OVC015 05/02 Q1016 R26/CLRD70 NOSIG

Čas: 19:36 (14:36 UTC)

Předpověď počasí

Zpráva byla vytvořena před 3 hodinami a 58 minutami, v 10:38 UTC
Předpověď platná od 19 v 12 UTC do 20 v 12 UTC
Západní vítr 16 kt s nárazy do 26 kt
Viditelnost: 1000 m
Oblačno až skoro zataženo ve výšce 500 ft
Zataženo ve výšce 10000 ft
nízko zvířený prach
Dočasný
od 19 v 12 UTC do 19 v 24 UTC
Severozápadní vítr 20 kt s nárazy do 30 kt
Viditelnost: 0300 m
ve výšce 100 ft

TAF: UTAT 191038Z 1912/2012 27016G26KT 1000 DRDU BKN005 OVC100 TEMPO 1912/1924 31020G30KT 0300 DS VV001

Stav a předpovědi počasí z více než 4 000 letišť (zprávy METAR a TAF).

Červené a žluté tečky na mapě představují dostupné meteorologické stanice.

Když kurzor umístíte na tečku, zobrazí se název stanice.

Pak kliknutím zobrazíte stav a předpověď počasí.

Chcete-li změnit mapu, kliknutím na zelené tlačítko se znaménkem +mapu přiblížíte, kliknutím na zelené tlačítko se znaménkem – mapu oddálíte a kliknutím na zelené šipky přejdete na sousední mapy.


METAR-TAF: